sensor_id;sensor_type;location;lat;lon;timestamp;P1;durP1;ratioP1;P2;durP2;ratioP2
19339;SDS011;9804;52.350;6.684;2023-03-01T00:01:04;14.63;;;8.17;;
19339;SDS011;9804;52.350;6.684;2023-03-01T00:03:31;13.90;;;7.70;;
19339;SDS011;9804;52.350;6.684;2023-03-01T00:05:57;11.97;;;7.30;;
19339;SDS011;9804;52.350;6.684;2023-03-01T00:08:23;18.53;;;7.93;;
19339;SDS011;9804;52.350;6.684;2023-03-01T00:10:48;13.97;;;7.60;;
19339;SDS011;9804;52.350;6.684;2023-03-01T00:13:14;14.00;;;7.63;;
19339;SDS011;9804;52.350;6.684;2023-03-01T00:15:40;15.07;;;7.50;;
19339;SDS011;9804;52.350;6.684;2023-03-01T00:18:06;13.10;;;7.20;;
19339;SDS011;9804;52.350;6.684;2023-03-01T00:20:33;15.93;;;7.90;;
19339;SDS011;9804;52.350;6.684;2023-03-01T00:22:58;12.73;;;7.60;;
19339;SDS011;9804;52.350;6.684;2023-03-01T00:25:24;15.83;;;7.60;;
19339;SDS011;9804;52.350;6.684;2023-03-01T00:27:49;15.13;;;7.83;;
19339;SDS011;9804;52.350;6.684;2023-03-01T00:30:14;13.57;;;7.00;;
19339;SDS011;9804;52.350;6.684;2023-03-01T00:32:40;14.20;;;6.63;;
19339;SDS011;9804;52.350;6.684;2023-03-01T00:35:06;12.23;;;7.17;;
19339;SDS011;9804;52.350;6.684;2023-03-01T00:37:31;15.60;;;7.20;;
19339;SDS011;9804;52.350;6.684;2023-03-01T00:39:57;12.13;;;7.00;;
19339;SDS011;9804;52.350;6.684;2023-03-01T00:42:22;18.10;;;7.80;;
19339;SDS011;9804;52.350;6.684;2023-03-01T00:44:48;12.77;;;6.63;;
19339;SDS011;9804;52.350;6.684;2023-03-01T00:47:13;17.17;;;8.00;;
19339;SDS011;9804;52.350;6.684;2023-03-01T00:49:39;15.60;;;7.07;;
19339;SDS011;9804;52.350;6.684;2023-03-01T00:52:04;14.17;;;6.83;;
19339;SDS011;9804;52.350;6.684;2023-03-01T00:54:30;15.37;;;7.03;;
19339;SDS011;9804;52.350;6.684;2023-03-01T00:56:55;13.10;;;7.03;;
19339;SDS011;9804;52.350;6.684;2023-03-01T00:59:20;15.57;;;7.03;;
19339;SDS011;9804;52.350;6.684;2023-03-01T01:01:46;13.03;;;6.73;;
19339;SDS011;9804;52.350;6.684;2023-03-01T01:04:12;14.67;;;7.10;;
19339;SDS011;9804;52.350;6.684;2023-03-01T01:06:40;13.77;;;7.40;;
19339;SDS011;9804;52.350;6.684;2023-03-01T01:09:11;14.80;;;6.17;;
19339;SDS011;9804;52.350;6.684;2023-03-01T01:11:44;12.73;;;6.53;;
19339;SDS011;9804;52.350;6.684;2023-03-01T01:14:11;13.27;;;7.00;;
19339;SDS011;9804;52.350;6.684;2023-03-01T01:16:36;12.47;;;6.83;;
19339;SDS011;9804;52.350;6.684;2023-03-01T01:19:02;11.93;;;6.87;;
19339;SDS011;9804;52.350;6.684;2023-03-01T01:21:28;13.03;;;6.93;;
19339;SDS011;9804;52.350;6.684;2023-03-01T01:23:54;13.77;;;7.03;;
19339;SDS011;9804;52.350;6.684;2023-03-01T01:28:47;11.67;;;5.97;;
19339;SDS011;9804;52.350;6.684;2023-03-01T01:31:12;10.77;;;6.60;;
19339;SDS011;9804;52.350;6.684;2023-03-01T01:33:39;13.83;;;7.10;;
19339;SDS011;9804;52.350;6.684;2023-03-01T01:36:05;10.73;;;6.43;;
19339;SDS011;9804;52.350;6.684;2023-03-01T01:38:31;13.50;;;6.83;;
19339;SDS011;9804;52.350;6.684;2023-03-01T01:40:57;15.40;;;6.17;;
19339;SDS011;9804;52.350;6.684;2023-03-01T01:45:51;11.20;;;6.40;;
19339;SDS011;9804;52.350;6.684;2023-03-01T01:48:24;9.30;;;5.67;;
19339;SDS011;9804;52.350;6.684;2023-03-01T01:51:05;12.77;;;6.50;;
19339;SDS011;9804;52.350;6.684;2023-03-01T01:53:32;9.47;;;5.50;;
19339;SDS011;9804;52.350;6.684;2023-03-01T01:55:58;12.07;;;5.87;;
19339;SDS011;9804;52.350;6.684;2023-03-01T01:58:26;11.13;;;6.17;;
19339;SDS011;9804;52.350;6.684;2023-03-01T02:00:54;12.33;;;6.30;;
19339;SDS011;9804;52.350;6.684;2023-03-01T02:03:24;13.03;;;6.67;;
19339;SDS011;9804;52.350;6.684;2023-03-01T02:06:05;11.33;;;6.20;;
19339;SDS011;9804;52.350;6.684;2023-03-01T02:08:38;9.93;;;5.60;;
19339;SDS011;9804;52.350;6.684;2023-03-01T02:11:05;12.17;;;6.60;;
19339;SDS011;9804;52.350;6.684;2023-03-01T02:13:32;14.93;;;6.10;;
19339;SDS011;9804;52.350;6.684;2023-03-01T02:15:58;10.47;;;6.10;;
19339;SDS011;9804;52.350;6.684;2023-03-01T02:18:27;11.87;;;6.57;;
19339;SDS011;9804;52.350;6.684;2023-03-01T02:24:01;12.23;;;5.23;;
19339;SDS011;9804;52.350;6.684;2023-03-01T02:26:51;13.33;;;6.13;;
19339;SDS011;9804;52.350;6.684;2023-03-01T02:29:18;11.97;;;6.47;;
19339;SDS011;9804;52.350;6.684;2023-03-01T02:31:44;10.70;;;6.27;;
19339;SDS011;9804;52.350;6.684;2023-03-01T02:34:11;9.97;;;5.10;;
19339;SDS011;9804;52.350;6.684;2023-03-01T02:36:49;10.00;;;5.50;;
19339;SDS011;9804;52.350;6.684;2023-03-01T02:39:19;11.23;;;5.73;;
19339;SDS011;9804;52.350;6.684;2023-03-01T02:41:51;11.57;;;6.20;;
19339;SDS011;9804;52.350;6.684;2023-03-01T02:44:19;9.07;;;5.77;;
19339;SDS011;9804;52.350;6.684;2023-03-01T02:46:49;11.07;;;6.17;;
19339;SDS011;9804;52.350;6.684;2023-03-01T02:49:27;11.03;;;6.23;;
19339;SDS011;9804;52.350;6.684;2023-03-01T02:54:54;15.83;;;5.80;;
19339;SDS011;9804;52.350;6.684;2023-03-01T02:57:25;10.87;;;5.67;;
19339;SDS011;9804;52.350;6.684;2023-03-01T02:59:54;13.97;;;6.23;;
19339;SDS011;9804;52.350;6.684;2023-03-01T03:02:21;11.10;;;6.00;;
19339;SDS011;9804;52.350;6.684;2023-03-01T03:05:11;10.27;;;5.83;;
19339;SDS011;9804;52.350;6.684;2023-03-01T03:07:39;15.77;;;6.07;;
19339;SDS011;9804;52.350;6.684;2023-03-01T03:10:07;11.50;;;6.73;;
19339;SDS011;9804;52.350;6.684;2023-03-01T03:12:36;11.40;;;5.90;;
19339;SDS011;9804;52.350;6.684;2023-03-01T03:15:02;9.97;;;5.60;;
19339;SDS011;9804;52.350;6.684;2023-03-01T03:17:33;10.87;;;6.10;;
19339;SDS011;9804;52.350;6.684;2023-03-01T03:20:03;13.27;;;6.30;;
19339;SDS011;9804;52.350;6.684;2023-03-01T03:22:31;11.07;;;6.27;;
19339;SDS011;9804;52.350;6.684;2023-03-01T03:24:58;11.47;;;5.90;;
19339;SDS011;9804;52.350;6.684;2023-03-01T03:27:24;11.93;;;6.33;;
19339;SDS011;9804;52.350;6.684;2023-03-01T03:29:49;11.13;;;6.43;;
19339;SDS011;9804;52.350;6.684;2023-03-01T03:32:15;12.90;;;5.90;;
19339;SDS011;9804;52.350;6.684;2023-03-01T03:34:40;10.30;;;5.80;;
19339;SDS011;9804;52.350;6.684;2023-03-01T03:37:06;9.63;;;5.47;;
19339;SDS011;9804;52.350;6.684;2023-03-01T03:39:51;11.43;;;6.10;;
19339;SDS011;9804;52.350;6.684;2023-03-01T03:42:19;10.00;;;5.30;;
19339;SDS011;9804;52.350;6.684;2023-03-01T03:44:46;12.50;;;6.23;;
19339;SDS011;9804;52.350;6.684;2023-03-01T03:47:12;12.43;;;5.53;;
19339;SDS011;9804;52.350;6.684;2023-03-01T03:49:37;12.17;;;5.50;;
19339;SDS011;9804;52.350;6.684;2023-03-01T03:52:05;10.73;;;5.43;;
19339;SDS011;9804;52.350;6.684;2023-03-01T03:54:38;13.10;;;6.30;;
19339;SDS011;9804;52.350;6.684;2023-03-01T03:57:06;11.03;;;6.07;;
19339;SDS011;9804;52.350;6.684;2023-03-01T03:59:32;10.27;;;5.80;;
19339;SDS011;9804;52.350;6.684;2023-03-01T04:01:57;10.60;;;5.03;;
19339;SDS011;9804;52.350;6.684;2023-03-01T04:04:22;11.30;;;6.00;;
19339;SDS011;9804;52.350;6.684;2023-03-01T04:06:48;12.43;;;6.30;;
19339;SDS011;9804;52.350;6.684;2023-03-01T04:09:13;11.33;;;6.33;;
19339;SDS011;9804;52.350;6.684;2023-03-01T04:11:39;13.87;;;6.77;;
19339;SDS011;9804;52.350;6.684;2023-03-01T04:14:04;12.67;;;6.30;;
19339;SDS011;9804;52.350;6.684;2023-03-01T04:16:30;13.53;;;5.77;;
19339;SDS011;9804;52.350;6.684;2023-03-01T04:18:55;12.13;;;6.90;;
19339;SDS011;9804;52.350;6.684;2023-03-01T04:21:21;12.87;;;6.07;;
19339;SDS011;9804;52.350;6.684;2023-03-01T04:23:47;12.33;;;6.83;;
19339;SDS011;9804;52.350;6.684;2023-03-01T04:26:13;11.80;;;6.40;;
19339;SDS011;9804;52.350;6.684;2023-03-01T04:28:39;10.43;;;6.20;;
19339;SDS011;9804;52.350;6.684;2023-03-01T04:31:08;13.50;;;6.80;;
19339;SDS011;9804;52.350;6.684;2023-03-01T04:33:50;11.07;;;6.20;;
19339;SDS011;9804;52.350;6.684;2023-03-01T04:36:18;10.43;;;6.33;;
19339;SDS011;9804;52.350;6.684;2023-03-01T04:38:45;13.47;;;6.87;;
19339;SDS011;9804;52.350;6.684;2023-03-01T04:41:15;15.57;;;6.23;;
19339;SDS011;9804;52.350;6.684;2023-03-01T04:43:42;10.87;;;5.83;;
19339;SDS011;9804;52.350;6.684;2023-03-01T04:46:08;12.13;;;6.17;;
19339;SDS011;9804;52.350;6.684;2023-03-01T04:48:36;12.00;;;6.37;;
19339;SDS011;9804;52.350;6.684;2023-03-01T04:51:02;14.23;;;6.40;;
19339;SDS011;9804;52.350;6.684;2023-03-01T04:53:28;13.70;;;7.07;;
19339;SDS011;9804;52.350;6.684;2023-03-01T04:55:54;12.87;;;6.97;;
19339;SDS011;9804;52.350;6.684;2023-03-01T04:58:21;12.93;;;6.70;;
19339;SDS011;9804;52.350;6.684;2023-03-01T05:00:48;14.03;;;7.07;;
19339;SDS011;9804;52.350;6.684;2023-03-01T05:03:13;12.73;;;6.90;;
19339;SDS011;9804;52.350;6.684;2023-03-01T05:05:43;13.93;;;7.13;;
19339;SDS011;9804;52.350;6.684;2023-03-01T05:08:09;15.63;;;6.87;;
19339;SDS011;9804;52.350;6.684;2023-03-01T05:10:42;14.17;;;7.00;;
19339;SDS011;9804;52.350;6.684;2023-03-01T05:13:08;13.03;;;6.83;;
19339;SDS011;9804;52.350;6.684;2023-03-01T05:15:34;11.27;;;6.20;;
19339;SDS011;9804;52.350;6.684;2023-03-01T05:18:01;13.13;;;7.13;;
19339;SDS011;9804;52.350;6.684;2023-03-01T05:20:28;12.23;;;6.77;;
19339;SDS011;9804;52.350;6.684;2023-03-01T05:22:56;12.90;;;6.80;;
19339;SDS011;9804;52.350;6.684;2023-03-01T05:25:23;14.70;;;6.73;;
19339;SDS011;9804;52.350;6.684;2023-03-01T05:27:49;13.47;;;7.00;;
19339;SDS011;9804;52.350;6.684;2023-03-01T05:30:15;13.70;;;7.37;;
19339;SDS011;9804;52.350;6.684;2023-03-01T05:32:43;12.30;;;6.80;;
19339;SDS011;9804;52.350;6.684;2023-03-01T05:35:14;13.60;;;7.23;;
19339;SDS011;9804;52.350;6.684;2023-03-01T05:37:45;15.70;;;6.63;;
19339;SDS011;9804;52.350;6.684;2023-03-01T05:40:13;13.50;;;6.73;;
19339;SDS011;9804;52.350;6.684;2023-03-01T05:42:53;13.97;;;7.00;;
19339;SDS011;9804;52.350;6.684;2023-03-01T05:45:20;13.53;;;7.00;;
19339;SDS011;9804;52.350;6.684;2023-03-01T05:47:47;13.57;;;7.47;;
19339;SDS011;9804;52.350;6.684;2023-03-01T05:50:14;13.90;;;7.20;;
19339;SDS011;9804;52.350;6.684;2023-03-01T05:52:48;14.23;;;7.10;;
19339;SDS011;9804;52.350;6.684;2023-03-01T05:55:19;15.07;;;7.27;;
19339;SDS011;9804;52.350;6.684;2023-03-01T05:57:46;13.93;;;6.73;;
19339;SDS011;9804;52.350;6.684;2023-03-01T06:00:12;15.63;;;6.97;;
19339;SDS011;9804;52.350;6.684;2023-03-01T06:02:39;11.30;;;6.33;;
19339;SDS011;9804;52.350;6.684;2023-03-01T06:05:06;17.70;;;7.80;;
19339;SDS011;9804;52.350;6.684;2023-03-01T06:07:33;13.00;;;6.70;;
19339;SDS011;9804;52.350;6.684;2023-03-01T06:09:58;13.10;;;6.10;;
19339;SDS011;9804;52.350;6.684;2023-03-01T06:12:24;13.13;;;7.37;;
19339;SDS011;9804;52.350;6.684;2023-03-01T06:14:49;13.80;;;7.30;;
19339;SDS011;9804;52.350;6.684;2023-03-01T06:17:14;12.63;;;7.00;;
19339;SDS011;9804;52.350;6.684;2023-03-01T06:19:40;13.20;;;6.87;;
19339;SDS011;9804;52.350;6.684;2023-03-01T06:22:05;16.67;;;7.63;;
19339;SDS011;9804;52.350;6.684;2023-03-01T06:24:31;14.90;;;7.17;;
19339;SDS011;9804;52.350;6.684;2023-03-01T06:26:58;14.73;;;7.30;;
19339;SDS011;9804;52.350;6.684;2023-03-01T06:29:23;17.43;;;8.13;;
19339;SDS011;9804;52.350;6.684;2023-03-01T06:31:49;15.20;;;7.60;;
19339;SDS011;9804;52.350;6.684;2023-03-01T06:34:14;16.83;;;7.93;;
19339;SDS011;9804;52.350;6.684;2023-03-01T06:36:40;19.80;;;7.60;;
19339;SDS011;9804;52.350;6.684;2023-03-01T06:39:05;17.80;;;7.53;;
19339;SDS011;9804;52.350;6.684;2023-03-01T06:41:31;14.10;;;7.53;;
19339;SDS011;9804;52.350;6.684;2023-03-01T06:43:57;14.40;;;7.63;;
19339;SDS011;9804;52.350;6.684;2023-03-01T06:46:23;17.53;;;7.90;;
19339;SDS011;9804;52.350;6.684;2023-03-01T06:48:49;13.20;;;7.33;;
19339;SDS011;9804;52.350;6.684;2023-03-01T06:51:14;18.30;;;8.00;;
19339;SDS011;9804;52.350;6.684;2023-03-01T06:53:39;17.27;;;8.43;;
19339;SDS011;9804;52.350;6.684;2023-03-01T06:56:05;15.33;;;7.97;;
19339;SDS011;9804;52.350;6.684;2023-03-01T06:58:30;15.67;;;7.70;;
19339;SDS011;9804;52.350;6.684;2023-03-01T07:00:56;19.57;;;7.37;;
19339;SDS011;9804;52.350;6.684;2023-03-01T07:03:21;16.17;;;8.17;;
19339;SDS011;9804;52.350;6.684;2023-03-01T07:05:50;16.77;;;8.13;;
19339;SDS011;9804;52.350;6.684;2023-03-01T07:08:19;10.87;;;6.43;;
19339;SDS011;9804;52.350;6.684;2023-03-01T07:10:45;11.57;;;6.77;;
19339;SDS011;9804;52.350;6.684;2023-03-01T07:13:10;16.20;;;7.93;;
19339;SDS011;9804;52.350;6.684;2023-03-01T07:15:36;16.70;;;7.17;;
19339;SDS011;9804;52.350;6.684;2023-03-01T07:18:01;16.23;;;8.00;;
19339;SDS011;9804;52.350;6.684;2023-03-01T07:20:27;16.27;;;7.83;;
19339;SDS011;9804;52.350;6.684;2023-03-01T07:22:53;14.60;;;7.53;;
19339;SDS011;9804;52.350;6.684;2023-03-01T07:25:19;15.00;;;8.23;;
19339;SDS011;9804;52.350;6.684;2023-03-01T07:27:48;19.60;;;7.87;;
19339;SDS011;9804;52.350;6.684;2023-03-01T07:30:15;17.30;;;8.60;;
19339;SDS011;9804;52.350;6.684;2023-03-01T07:32:40;17.03;;;8.73;;
19339;SDS011;9804;52.350;6.684;2023-03-01T07:35:06;15.77;;;8.50;;
19339;SDS011;9804;52.350;6.684;2023-03-01T07:37:32;17.53;;;9.00;;
19339;SDS011;9804;52.350;6.684;2023-03-01T07:39:57;19.80;;;9.20;;
19339;SDS011;9804;52.350;6.684;2023-03-01T07:42:23;20.20;;;9.27;;
19339;SDS011;9804;52.350;6.684;2023-03-01T07:44:48;18.63;;;10.17;;
19339;SDS011;9804;52.350;6.684;2023-03-01T07:47:13;19.47;;;9.03;;
19339;SDS011;9804;52.350;6.684;2023-03-01T07:49:39;22.73;;;10.00;;
19339;SDS011;9804;52.350;6.684;2023-03-01T07:52:04;20.27;;;10.10;;
19339;SDS011;9804;52.350;6.684;2023-03-01T07:54:29;22.10;;;11.27;;
19339;SDS011;9804;52.350;6.684;2023-03-01T07:56:56;18.17;;;9.73;;
19339;SDS011;9804;52.350;6.684;2023-03-01T07:59:21;24.70;;;11.00;;
19339;SDS011;9804;52.350;6.684;2023-03-01T08:01:48;22.27;;;11.77;;
19339;SDS011;9804;52.350;6.684;2023-03-01T08:04:14;22.73;;;11.80;;
19339;SDS011;9804;52.350;6.684;2023-03-01T08:06:39;24.50;;;11.47;;
19339;SDS011;9804;52.350;6.684;2023-03-01T08:09:04;26.40;;;12.83;;
19339;SDS011;9804;52.350;6.684;2023-03-01T08:11:30;22.07;;;12.73;;
19339;SDS011;9804;52.350;6.684;2023-03-01T08:13:55;27.07;;;12.90;;
19339;SDS011;9804;52.350;6.684;2023-03-01T08:16:22;24.73;;;13.03;;
19339;SDS011;9804;52.350;6.684;2023-03-01T08:18:47;25.50;;;13.20;;
19339;SDS011;9804;52.350;6.684;2023-03-01T08:21:16;25.37;;;13.13;;
19339;SDS011;9804;52.350;6.684;2023-03-01T08:23:43;20.13;;;12.47;;
19339;SDS011;9804;52.350;6.684;2023-03-01T08:26:10;20.83;;;12.23;;
19339;SDS011;9804;52.350;6.684;2023-03-01T08:28:37;21.00;;;12.80;;
19339;SDS011;9804;52.350;6.684;2023-03-01T08:31:03;19.87;;;12.37;;
19339;SDS011;9804;52.350;6.684;2023-03-01T08:33:38;17.83;;;11.93;;
19339;SDS011;9804;52.350;6.684;2023-03-01T08:36:04;25.70;;;12.53;;
19339;SDS011;9804;52.350;6.684;2023-03-01T08:38:31;21.13;;;11.33;;
19339;SDS011;9804;52.350;6.684;2023-03-01T08:40:59;18.80;;;11.40;;
19339;SDS011;9804;52.350;6.684;2023-03-01T08:43:25;17.27;;;10.77;;
19339;SDS011;9804;52.350;6.684;2023-03-01T08:45:51;20.80;;;11.87;;
19339;SDS011;9804;52.350;6.684;2023-03-01T08:48:16;19.53;;;11.17;;
19339;SDS011;9804;52.350;6.684;2023-03-01T08:50:41;21.53;;;11.73;;
19339;SDS011;9804;52.350;6.684;2023-03-01T08:53:07;20.43;;;11.57;;
19339;SDS011;9804;52.350;6.684;2023-03-01T08:55:32;15.57;;;10.07;;
19339;SDS011;9804;52.350;6.684;2023-03-01T08:57:58;13.57;;;8.63;;
19339;SDS011;9804;52.350;6.684;2023-03-01T09:00:24;12.10;;;7.90;;
19339;SDS011;9804;52.350;6.684;2023-03-01T09:02:50;14.30;;;7.83;;
19339;SDS011;9804;52.350;6.684;2023-03-01T09:05:15;12.57;;;6.97;;
19339;SDS011;9804;52.350;6.684;2023-03-01T09:07:40;9.67;;;6.27;;
19339;SDS011;9804;52.350;6.684;2023-03-01T09:10:06;9.57;;;6.03;;
19339;SDS011;9804;52.350;6.684;2023-03-01T09:12:32;11.10;;;6.47;;
19339;SDS011;9804;52.350;6.684;2023-03-01T09:14:57;8.90;;;5.97;;
19339;SDS011;9804;52.350;6.684;2023-03-01T09:17:22;9.53;;;5.43;;
19339;SDS011;9804;52.350;6.684;2023-03-01T09:19:48;8.93;;;5.60;;
19339;SDS011;9804;52.350;6.684;2023-03-01T09:22:14;10.73;;;5.40;;
19339;SDS011;9804;52.350;6.684;2023-03-01T09:24:39;7.83;;;5.30;;
19339;SDS011;9804;52.350;6.684;2023-03-01T09:27:05;8.30;;;5.57;;
19339;SDS011;9804;52.350;6.684;2023-03-01T09:29:33;10.00;;;5.70;;
19339;SDS011;9804;52.350;6.684;2023-03-01T09:32:02;8.80;;;5.47;;
19339;SDS011;9804;52.350;6.684;2023-03-01T09:34:27;10.13;;;5.73;;
19339;SDS011;9804;52.350;6.684;2023-03-01T09:36:53;10.27;;;5.13;;
19339;SDS011;9804;52.350;6.684;2023-03-01T09:39:18;10.23;;;5.10;;
19339;SDS011;9804;52.350;6.684;2023-03-01T09:47:05;6.60;;;4.27;;
19339;SDS011;9804;52.350;6.684;2023-03-01T09:49:35;12.07;;;4.70;;
19339;SDS011;9804;52.350;6.684;2023-03-01T09:54:58;8.60;;;4.13;;
19339;SDS011;9804;52.350;6.684;2023-03-01T09:57:36;6.40;;;3.90;;
19339;SDS011;9804;52.350;6.684;2023-03-01T10:00:30;7.33;;;4.10;;
19339;SDS011;9804;52.350;6.684;2023-03-01T10:03:02;7.10;;;4.07;;
19339;SDS011;9804;52.350;6.684;2023-03-01T10:11:20;6.17;;;3.80;;
19339;SDS011;9804;52.350;6.684;2023-03-01T10:13:46;6.23;;;3.83;;
19339;SDS011;9804;52.350;6.684;2023-03-01T10:16:43;7.27;;;4.10;;
19339;SDS011;9804;52.350;6.684;2023-03-01T10:19:19;8.63;;;4.20;;
19339;SDS011;9804;52.350;6.684;2023-03-01T10:21:52;8.13;;;4.20;;
19339;SDS011;9804;52.350;6.684;2023-03-01T10:24:18;6.80;;;4.13;;
19339;SDS011;9804;52.350;6.684;2023-03-01T10:29:22;8.10;;;4.23;;
19339;SDS011;9804;52.350;6.684;2023-03-01T10:31:51;7.77;;;4.20;;
19339;SDS011;9804;52.350;6.684;2023-03-01T10:34:25;7.93;;;4.00;;
19339;SDS011;9804;52.350;6.684;2023-03-01T10:36:55;7.57;;;4.30;;
19339;SDS011;9804;52.350;6.684;2023-03-01T10:39:23;6.03;;;3.77;;
19339;SDS011;9804;52.350;6.684;2023-03-01T10:41:59;7.93;;;4.27;;
19339;SDS011;9804;52.350;6.684;2023-03-01T10:44:43;7.50;;;3.90;;
19339;SDS011;9804;52.350;6.684;2023-03-01T10:47:18;5.57;;;3.60;;
19339;SDS011;9804;52.350;6.684;2023-03-01T10:49:57;10.73;;;4.03;;
19339;SDS011;9804;52.350;6.684;2023-03-01T10:52:31;6.93;;;3.33;;
19339;SDS011;9804;52.350;6.684;2023-03-01T10:54:59;5.60;;;3.40;;
19339;SDS011;9804;52.350;6.684;2023-03-01T10:57:29;7.63;;;4.10;;
19339;SDS011;9804;52.350;6.684;2023-03-01T11:00:30;6.37;;;3.43;;
19339;SDS011;9804;52.350;6.684;2023-03-01T11:02:50;6.60;;;4.00;;
19339;SDS011;9804;52.350;6.684;2023-03-01T11:05:23;5.87;;;3.63;;
19339;SDS011;9804;52.350;6.684;2023-03-01T11:07:57;6.73;;;3.70;;
19339;SDS011;9804;52.350;6.684;2023-03-01T11:10:24;7.13;;;4.00;;
19339;SDS011;9804;52.350;6.684;2023-03-01T11:12:52;6.27;;;3.50;;
19339;SDS011;9804;52.350;6.684;2023-03-01T11:15:23;6.37;;;3.73;;
19339;SDS011;9804;52.350;6.684;2023-03-01T11:17:51;6.63;;;3.53;;
19339;SDS011;9804;52.350;6.684;2023-03-01T11:20:31;7.70;;;3.83;;
19339;SDS011;9804;52.350;6.684;2023-03-01T11:23:01;8.17;;;3.17;;
19339;SDS011;9804;52.350;6.684;2023-03-01T11:25:35;6.63;;;3.40;;
19339;SDS011;9804;52.350;6.684;2023-03-01T11:28:03;7.33;;;3.47;;
19339;SDS011;9804;52.350;6.684;2023-03-01T11:30:49;4.33;;;2.73;;
19339;SDS011;9804;52.350;6.684;2023-03-01T11:33:40;6.03;;;3.17;;
19339;SDS011;9804;52.350;6.684;2023-03-01T11:38:51;5.77;;;2.97;;
19339;SDS011;9804;52.350;6.684;2023-03-01T11:41:20;6.03;;;3.00;;
19339;SDS011;9804;52.350;6.684;2023-03-01T11:43:54;5.00;;;3.20;;
19339;SDS011;9804;52.350;6.684;2023-03-01T11:49:04;4.07;;;2.60;;
19339;SDS011;9804;52.350;6.684;2023-03-01T11:54:18;5.00;;;2.90;;
19339;SDS011;9804;52.350;6.684;2023-03-01T12:02:00;4.20;;;2.80;;
19339;SDS011;9804;52.350;6.684;2023-03-01T12:04:54;5.33;;;2.47;;
19339;SDS011;9804;52.350;6.684;2023-03-01T12:18:10;4.13;;;2.57;;
19339;SDS011;9804;52.350;6.684;2023-03-01T12:21:00;4.27;;;2.50;;
19339;SDS011;9804;52.350;6.684;2023-03-01T12:23:37;4.33;;;2.77;;
19339;SDS011;9804;52.350;6.684;2023-03-01T12:26:26;5.40;;;3.07;;
19339;SDS011;9804;52.350;6.684;2023-03-01T12:31:57;3.58;;;2.75;;
19339;SDS011;9804;52.350;6.684;2023-03-01T12:40:15;5.30;;;2.73;;
19339;SDS011;9804;52.350;6.684;2023-03-01T12:42:58;7.40;;;3.10;;
19339;SDS011;9804;52.350;6.684;2023-03-01T12:48:28;5.40;;;3.10;;
19339;SDS011;9804;52.350;6.684;2023-03-01T12:51:02;4.32;;;3.00;;
19339;SDS011;9804;52.350;6.684;2023-03-01T12:53:34;7.82;;;2.90;;
19339;SDS011;9804;52.350;6.684;2023-03-01T12:56:06;6.10;;;3.22;;
19339;SDS011;9804;52.350;6.684;2023-03-01T13:01:35;4.53;;;3.00;;
19339;SDS011;9804;52.350;6.684;2023-03-01T13:12:51;5.43;;;3.30;;
19339;SDS011;9804;52.350;6.684;2023-03-01T13:15:29;5.93;;;3.47;;
19339;SDS011;9804;52.350;6.684;2023-03-01T13:18:01;5.97;;;3.20;;
19339;SDS011;9804;52.350;6.684;2023-03-01T13:25:59;5.07;;;3.03;;
19339;SDS011;9804;52.350;6.684;2023-03-01T13:41:48;6.63;;;2.78;;
19339;SDS011;9804;52.350;6.684;2023-03-01T13:44:20;5.55;;;2.90;;
19339;SDS011;9804;52.350;6.684;2023-03-01T13:46:46;4.65;;;3.03;;
19339;SDS011;9804;52.350;6.684;2023-03-01T13:49:16;5.65;;;3.03;;
19339;SDS011;9804;52.350;6.684;2023-03-01T13:51:47;5.28;;;2.90;;
19339;SDS011;9804;52.350;6.684;2023-03-01T13:54:16;5.00;;;3.03;;
19339;SDS011;9804;52.350;6.684;2023-03-01T13:56:49;3.80;;;2.80;;
19339;SDS011;9804;52.350;6.684;2023-03-01T13:59:19;9.65;;;3.65;;
19339;SDS011;9804;52.350;6.684;2023-03-01T14:02:19;4.35;;;2.85;;
19339;SDS011;9804;52.350;6.684;2023-03-01T14:04:38;6.40;;;3.17;;
19339;SDS011;9804;52.350;6.684;2023-03-01T14:09:45;5.80;;;3.22;;
19339;SDS011;9804;52.350;6.684;2023-03-01T14:12:22;5.17;;;3.30;;
19339;SDS011;9804;52.350;6.684;2023-03-01T14:19:09;8.82;;;3.17;;
19339;SDS011;9804;52.350;6.684;2023-03-01T14:21:13;9.88;;;3.88;;
19339;SDS011;9804;52.350;6.684;2023-03-01T14:23:40;5.70;;;3.20;;
19339;SDS011;9804;52.350;6.684;2023-03-01T14:26:07;6.57;;;3.25;;
19339;SDS011;9804;52.350;6.684;2023-03-01T14:28:34;6.72;;;3.20;;
19339;SDS011;9804;52.350;6.684;2023-03-01T14:31:04;5.70;;;3.23;;
19339;SDS011;9804;52.350;6.684;2023-03-01T14:33:57;5.50;;;3.43;;
19339;SDS011;9804;52.350;6.684;2023-03-01T14:36:27;6.32;;;3.47;;
19339;SDS011;9804;52.350;6.684;2023-03-01T14:38:53;4.45;;;3.00;;
19339;SDS011;9804;52.350;6.684;2023-03-01T14:41:23;5.55;;;2.70;;
19339;SDS011;9804;52.350;6.684;2023-03-01T14:43:56;6.28;;;3.40;;
19339;SDS011;9804;52.350;6.684;2023-03-01T14:48:58;4.88;;;2.55;;
19339;SDS011;9804;52.350;6.684;2023-03-01T14:51:28;5.38;;;3.10;;
19339;SDS011;9804;52.350;6.684;2023-03-01T14:53:53;6.82;;;3.22;;
19339;SDS011;9804;52.350;6.684;2023-03-01T14:56:19;9.07;;;3.92;;
19339;SDS011;9804;52.350;6.684;2023-03-01T14:58:44;5.63;;;3.28;;
19339;SDS011;9804;52.350;6.684;2023-03-01T15:01:14;4.00;;;2.83;;
19339;SDS011;9804;52.350;6.684;2023-03-01T15:03:42;5.47;;;3.00;;
19339;SDS011;9804;52.350;6.684;2023-03-01T15:06:09;5.82;;;2.97;;
19339;SDS011;9804;52.350;6.684;2023-03-01T15:08:41;5.18;;;3.30;;
19339;SDS011;9804;52.350;6.684;2023-03-01T15:13:38;4.57;;;3.08;;
19339;SDS011;9804;52.350;6.684;2023-03-01T15:18:36;5.43;;;3.13;;
19339;SDS011;9804;52.350;6.684;2023-03-01T15:21:06;6.18;;;3.15;;
19339;SDS011;9804;52.350;6.684;2023-03-01T15:23:34;5.10;;;2.95;;
19339;SDS011;9804;52.350;6.684;2023-03-01T15:26:02;4.50;;;2.83;;
19339;SDS011;9804;52.350;6.684;2023-03-01T15:28:32;6.50;;;3.37;;
19339;SDS011;9804;52.350;6.684;2023-03-01T15:33:45;5.50;;;3.07;;
19339;SDS011;9804;52.350;6.684;2023-03-01T15:36:35;5.53;;;2.90;;
19339;SDS011;9804;52.350;6.684;2023-03-01T15:39:05;4.33;;;3.00;;
19339;SDS011;9804;52.350;6.684;2023-03-01T15:41:52;6.65;;;2.97;;
19339;SDS011;9804;52.350;6.684;2023-03-01T15:44:27;5.03;;;3.10;;
19339;SDS011;9804;52.350;6.684;2023-03-01T15:46:54;5.40;;;3.27;;
19339;SDS011;9804;52.350;6.684;2023-03-01T15:51:51;7.50;;;3.40;;
19339;SDS011;9804;52.350;6.684;2023-03-01T15:54:20;8.50;;;3.80;;
19339;SDS011;9804;52.350;6.684;2023-03-01T15:56:48;7.10;;;3.20;;
19339;SDS011;9804;52.350;6.684;2023-03-01T15:59:13;4.20;;;3.03;;
19339;SDS011;9804;52.350;6.684;2023-03-01T16:01:42;4.70;;;2.87;;
19339;SDS011;9804;52.350;6.684;2023-03-01T16:04:09;5.43;;;3.10;;
19339;SDS011;9804;52.350;6.684;2023-03-01T16:06:38;7.30;;;3.23;;
19339;SDS011;9804;52.350;6.684;2023-03-01T16:09:04;5.93;;;3.33;;
19339;SDS011;9804;52.350;6.684;2023-03-01T16:11:29;6.77;;;3.30;;
19339;SDS011;9804;52.350;6.684;2023-03-01T16:13:57;7.83;;;3.63;;
19339;SDS011;9804;52.350;6.684;2023-03-01T16:16:22;5.85;;;3.30;;
19339;SDS011;9804;52.350;6.684;2023-03-01T16:18:48;5.67;;;3.20;;
19339;SDS011;9804;52.350;6.684;2023-03-01T16:21:14;5.67;;;3.43;;
19339;SDS011;9804;52.350;6.684;2023-03-01T16:23:43;7.78;;;3.78;;
19339;SDS011;9804;52.350;6.684;2023-03-01T16:26:09;6.38;;;3.25;;
19339;SDS011;9804;52.350;6.684;2023-03-01T16:28:35;7.90;;;3.78;;
19339;SDS011;9804;52.350;6.684;2023-03-01T16:31:00;6.72;;;3.78;;
19339;SDS011;9804;52.350;6.684;2023-03-01T16:33:26;5.60;;;3.60;;
19339;SDS011;9804;52.350;6.684;2023-03-01T16:35:52;8.18;;;3.97;;
19339;SDS011;9804;52.350;6.684;2023-03-01T16:38:17;6.22;;;3.83;;
19339;SDS011;9804;52.350;6.684;2023-03-01T16:40:46;7.50;;;3.75;;
19339;SDS011;9804;52.350;6.684;2023-03-01T16:43:13;6.95;;;4.03;;
19339;SDS011;9804;52.350;6.684;2023-03-01T16:45:38;8.18;;;3.85;;
19339;SDS011;9804;52.350;6.684;2023-03-01T16:48:06;7.43;;;3.90;;
19339;SDS011;9804;52.350;6.684;2023-03-01T16:50:31;7.88;;;3.78;;
19339;SDS011;9804;52.350;6.684;2023-03-01T16:52:57;7.18;;;4.25;;
19339;SDS011;9804;52.350;6.684;2023-03-01T16:55:22;6.77;;;4.30;;